sensor_id;sensor_type;location;lat;lon;timestamp;P1;durP1;ratioP1;P2;durP2;ratioP2
11608;SDS011;5860;52.018;8.536;2022-08-04T00:02:23;9.63;;;3.10;;
11608;SDS011;5860;52.018;8.536;2022-08-04T00:04:59;6.25;;;2.70;;
11608;SDS011;5860;52.018;8.536;2022-08-04T00:10:13;8.88;;;2.67;;
11608;SDS011;5860;52.018;8.536;2022-08-04T00:12:46;11.77;;;3.15;;
11608;SDS011;5860;52.018;8.536;2022-08-04T00:15:15;7.53;;;3.13;;
11608;SDS011;5860;52.018;8.536;2022-08-04T00:20:36;10.13;;;3.33;;
11608;SDS011;5860;52.018;8.536;2022-08-04T00:23:04;9.23;;;2.90;;
11608;SDS011;5860;52.018;8.536;2022-08-04T00:25:32;9.65;;;3.17;;
11608;SDS011;5860;52.018;8.536;2022-08-04T00:27:59;12.02;;;2.88;;
11608;SDS011;5860;52.018;8.536;2022-08-04T00:30:29;9.32;;;2.92;;
11608;SDS011;5860;52.018;8.536;2022-08-04T00:32:56;8.98;;;2.95;;
11608;SDS011;5860;52.018;8.536;2022-08-04T00:35:24;9.13;;;3.20;;
11608;SDS011;5860;52.018;8.536;2022-08-04T00:37:52;9.20;;;3.22;;
11608;SDS011;5860;52.018;8.536;2022-08-04T00:43:01;10.68;;;3.40;;
11608;SDS011;5860;52.018;8.536;2022-08-04T01:11:36;15.63;;;3.35;;
11608;SDS011;5860;52.018;8.536;2022-08-04T01:17:24;7.20;;;2.42;;
11608;SDS011;5860;52.018;8.536;2022-08-04T01:20:09;7.43;;;2.97;;
11608;SDS011;5860;52.018;8.536;2022-08-04T01:28:15;6.13;;;2.80;;
11608;SDS011;5860;52.018;8.536;2022-08-04T01:30:51;13.10;;;3.42;;
11608;SDS011;5860;52.018;8.536;2022-08-04T01:33:22;11.43;;;2.75;;
11608;SDS011;5860;52.018;8.536;2022-08-04T01:36:00;11.95;;;3.40;;
11608;SDS011;5860;52.018;8.536;2022-08-04T01:38:35;9.05;;;3.17;;
11608;SDS011;5860;52.018;8.536;2022-08-04T01:41:08;9.40;;;3.38;;
11608;SDS011;5860;52.018;8.536;2022-08-04T01:43:43;13.77;;;3.88;;
11608;SDS011;5860;52.018;8.536;2022-08-04T01:46:12;8.05;;;2.53;;
11608;SDS011;5860;52.018;8.536;2022-08-04T01:48:41;11.30;;;2.83;;
11608;SDS011;5860;52.018;8.536;2022-08-04T01:51:11;14.43;;;3.92;;
11608;SDS011;5860;52.018;8.536;2022-08-04T01:53:40;13.70;;;2.95;;
11608;SDS011;5860;52.018;8.536;2022-08-04T01:56:08;14.07;;;3.67;;
11608;SDS011;5860;52.018;8.536;2022-08-04T01:58:37;7.28;;;3.03;;
11608;SDS011;5860;52.018;8.536;2022-08-04T02:01:08;8.70;;;2.90;;
11608;SDS011;5860;52.018;8.536;2022-08-04T02:03:37;12.07;;;3.17;;
11608;SDS011;5860;52.018;8.536;2022-08-04T02:11:48;10.27;;;3.65;;
11608;SDS011;5860;52.018;8.536;2022-08-04T02:14:46;14.30;;;3.40;;
11608;SDS011;5860;52.018;8.536;2022-08-04T02:17:26;9.60;;;3.30;;
11608;SDS011;5860;52.018;8.536;2022-08-04T02:22:51;11.47;;;4.00;;
11608;SDS011;5860;52.018;8.536;2022-08-04T02:25:23;7.05;;;3.05;;
11608;SDS011;5860;52.018;8.536;2022-08-04T02:31:29;10.23;;;3.10;;
11608;SDS011;5860;52.018;8.536;2022-08-04T02:33:44;7.88;;;3.03;;
11608;SDS011;5860;52.018;8.536;2022-08-04T02:36:23;9.30;;;3.20;;
11608;SDS011;5860;52.018;8.536;2022-08-04T02:39:00;9.40;;;3.70;;
11608;SDS011;5860;52.018;8.536;2022-08-04T02:41:30;11.90;;;3.60;;
11608;SDS011;5860;52.018;8.536;2022-08-04T02:44:00;8.48;;;3.20;;
11608;SDS011;5860;52.018;8.536;2022-08-04T02:46:30;8.35;;;3.75;;
11608;SDS011;5860;52.018;8.536;2022-08-04T02:49:01;8.40;;;3.22;;
11608;SDS011;5860;52.018;8.536;2022-08-04T02:51:32;10.60;;;3.58;;
11608;SDS011;5860;52.018;8.536;2022-08-04T02:54:06;10.95;;;3.80;;
11608;SDS011;5860;52.018;8.536;2022-08-04T02:56:33;11.73;;;3.50;;
11608;SDS011;5860;52.018;8.536;2022-08-04T02:59:05;6.97;;;3.67;;
11608;SDS011;5860;52.018;8.536;2022-08-04T03:01:35;8.97;;;3.60;;
11608;SDS011;5860;52.018;8.536;2022-08-04T03:07:29;5.40;;;3.17;;
11608;SDS011;5860;52.018;8.536;2022-08-04T03:13:25;7.43;;;3.60;;
11608;SDS011;5860;52.018;8.536;2022-08-04T03:16:23;10.57;;;4.30;;
11608;SDS011;5860;52.018;8.536;2022-08-04T03:39:46;6.07;;;3.87;;
11608;SDS011;5860;52.018;8.536;2022-08-04T03:56:50;10.17;;;3.77;;
11608;SDS011;5860;52.018;8.536;2022-08-04T04:02:43;12.07;;;3.90;;
11608;SDS011;5860;52.018;8.536;2022-08-04T04:05:33;9.10;;;4.10;;
11608;SDS011;5860;52.018;8.536;2022-08-04T04:15:00;11.43;;;3.80;;
11608;SDS011;5860;52.018;8.536;2022-08-04T04:23:45;12.57;;;4.13;;
11608;SDS011;5860;52.018;8.536;2022-08-04T04:26:22;11.90;;;3.93;;
11608;SDS011;5860;52.018;8.536;2022-08-04T04:51:59;9.60;;;3.60;;
11608;SDS011;5860;52.018;8.536;2022-08-04T04:54:54;11.07;;;3.55;;
11608;SDS011;5860;52.018;8.536;2022-08-04T04:57:44;7.50;;;3.40;;
11608;SDS011;5860;52.018;8.536;2022-08-04T05:00:20;9.18;;;3.80;;
11608;SDS011;5860;52.018;8.536;2022-08-04T05:08:58;6.88;;;3.20;;
11608;SDS011;5860;52.018;8.536;2022-08-04T05:14:54;9.60;;;3.85;;
11608;SDS011;5860;52.018;8.536;2022-08-04T05:17:26;11.68;;;3.90;;
11608;SDS011;5860;52.018;8.536;2022-08-04T05:20:03;8.52;;;3.92;;
11608;SDS011;5860;52.018;8.536;2022-08-04T05:22:34;10.32;;;3.97;;
11608;SDS011;5860;52.018;8.536;2022-08-04T05:25:18;8.30;;;3.78;;
11608;SDS011;5860;52.018;8.536;2022-08-04T05:27:50;8.02;;;3.63;;
11608;SDS011;5860;52.018;8.536;2022-08-04T05:30:31;12.80;;;4.22;;
11608;SDS011;5860;52.018;8.536;2022-08-04T05:33:38;9.82;;;4.43;;
11608;SDS011;5860;52.018;8.536;2022-08-04T05:36:16;8.80;;;3.85;;
11608;SDS011;5860;52.018;8.536;2022-08-04T05:39:06;10.30;;;3.80;;
11608;SDS011;5860;52.018;8.536;2022-08-04T05:41:39;9.43;;;4.25;;
11608;SDS011;5860;52.018;8.536;2022-08-04T05:44:11;10.73;;;4.20;;
11608;SDS011;5860;52.018;8.536;2022-08-04T05:46:40;10.35;;;4.00;;
11608;SDS011;5860;52.018;8.536;2022-08-04T05:49:09;11.57;;;3.92;;
11608;SDS011;5860;52.018;8.536;2022-08-04T05:51:44;15.85;;;4.10;;
11608;SDS011;5860;52.018;8.536;2022-08-04T05:54:12;7.40;;;3.75;;
11608;SDS011;5860;52.018;8.536;2022-08-04T05:56:40;6.70;;;3.60;;
11608;SDS011;5860;52.018;8.536;2022-08-04T05:59:08;6.18;;;3.85;;
11608;SDS011;5860;52.018;8.536;2022-08-04T06:01:36;8.75;;;4.22;;
11608;SDS011;5860;52.018;8.536;2022-08-04T06:06:50;9.13;;;3.50;;
11608;SDS011;5860;52.018;8.536;2022-08-04T06:09:18;10.82;;;3.97;;
11608;SDS011;5860;52.018;8.536;2022-08-04T06:11:45;8.77;;;3.38;;
11608;SDS011;5860;52.018;8.536;2022-08-04T06:14:42;8.98;;;3.70;;
11608;SDS011;5860;52.018;8.536;2022-08-04T06:17:13;8.02;;;3.78;;
11608;SDS011;5860;52.018;8.536;2022-08-04T06:20:04;11.43;;;4.20;;
11608;SDS011;5860;52.018;8.536;2022-08-04T06:22:57;10.75;;;3.42;;
11608;SDS011;5860;52.018;8.536;2022-08-04T06:25:31;7.65;;;3.70;;
11608;SDS011;5860;52.018;8.536;2022-08-04T06:28:04;9.20;;;3.63;;
11608;SDS011;5860;52.018;8.536;2022-08-04T06:30:33;9.90;;;3.78;;
11608;SDS011;5860;52.018;8.536;2022-08-04T06:33:02;6.55;;;3.53;;
11608;SDS011;5860;52.018;8.536;2022-08-04T06:35:39;9.45;;;3.50;;
11608;SDS011;5860;52.018;8.536;2022-08-04T06:38:07;7.15;;;3.55;;
11608;SDS011;5860;52.018;8.536;2022-08-04T06:40:34;6.60;;;3.55;;
11608;SDS011;5860;52.018;8.536;2022-08-04T06:43:02;6.93;;;3.92;;
11608;SDS011;5860;52.018;8.536;2022-08-04T06:45:32;7.30;;;3.60;;
11608;SDS011;5860;52.018;8.536;2022-08-04T06:48:02;6.43;;;3.60;;
11608;SDS011;5860;52.018;8.536;2022-08-04T06:50:31;5.80;;;3.55;;
11608;SDS011;5860;52.018;8.536;2022-08-04T06:53:23;7.85;;;3.97;;
11608;SDS011;5860;52.018;8.536;2022-08-04T06:55:51;7.05;;;3.58;;
11608;SDS011;5860;52.018;8.536;2022-08-04T06:58:19;4.40;;;3.13;;
11608;SDS011;5860;52.018;8.536;2022-08-04T07:00:47;7.90;;;3.58;;
11608;SDS011;5860;52.018;8.536;2022-08-04T07:03:16;7.32;;;3.40;;
11608;SDS011;5860;52.018;8.536;2022-08-04T07:05:46;10.35;;;3.22;;
11608;SDS011;5860;52.018;8.536;2022-08-04T07:08:14;6.15;;;3.13;;
11608;SDS011;5860;52.018;8.536;2022-08-04T07:10:41;9.13;;;3.22;;
11608;SDS011;5860;52.018;8.536;2022-08-04T07:13:10;8.70;;;3.60;;
11608;SDS011;5860;52.018;8.536;2022-08-04T07:15:38;4.20;;;3.00;;
11608;SDS011;5860;52.018;8.536;2022-08-04T07:18:08;4.80;;;3.35;;
11608;SDS011;5860;52.018;8.536;2022-08-04T07:20:39;9.15;;;3.45;;
11608;SDS011;5860;52.018;8.536;2022-08-04T07:23:08;6.68;;;3.08;;
11608;SDS011;5860;52.018;8.536;2022-08-04T07:25:38;8.82;;;3.17;;
11608;SDS011;5860;52.018;8.536;2022-08-04T07:28:28;7.25;;;3.03;;
11608;SDS011;5860;52.018;8.536;2022-08-04T07:30:56;5.15;;;3.53;;
11608;SDS011;5860;52.018;8.536;2022-08-04T07:33:24;8.93;;;3.17;;
11608;SDS011;5860;52.018;8.536;2022-08-04T07:35:54;8.35;;;2.90;;
11608;SDS011;5860;52.018;8.536;2022-08-04T07:38:36;6.00;;;3.08;;
11608;SDS011;5860;52.018;8.536;2022-08-04T07:41:20;5.55;;;3.08;;
11608;SDS011;5860;52.018;8.536;2022-08-04T07:44:05;4.25;;;2.90;;
11608;SDS011;5860;52.018;8.536;2022-08-04T07:46:33;7.55;;;3.22;;
11608;SDS011;5860;52.018;8.536;2022-08-04T07:49:01;6.65;;;3.40;;
11608;SDS011;5860;52.018;8.536;2022-08-04T07:51:29;8.70;;;3.53;;
11608;SDS011;5860;52.018;8.536;2022-08-04T07:53:57;5.18;;;3.20;;
11608;SDS011;5860;52.018;8.536;2022-08-04T07:56:25;6.55;;;3.30;;
11608;SDS011;5860;52.018;8.536;2022-08-04T07:58:53;7.53;;;3.00;;
11608;SDS011;5860;52.018;8.536;2022-08-04T08:01:21;4.78;;;3.55;;
11608;SDS011;5860;52.018;8.536;2022-08-04T08:03:50;7.18;;;3.40;;
11608;SDS011;5860;52.018;8.536;2022-08-04T08:06:18;6.57;;;3.15;;
11608;SDS011;5860;52.018;8.536;2022-08-04T08:09:00;6.88;;;3.33;;
11608;SDS011;5860;52.018;8.536;2022-08-04T08:11:39;4.15;;;2.70;;
11608;SDS011;5860;52.018;8.536;2022-08-04T08:14:30;6.45;;;3.40;;
11608;SDS011;5860;52.018;8.536;2022-08-04T08:16:58;7.20;;;3.20;;
11608;SDS011;5860;52.018;8.536;2022-08-04T08:19:28;5.18;;;2.90;;
11608;SDS011;5860;52.018;8.536;2022-08-04T08:21:56;4.05;;;2.85;;
11608;SDS011;5860;52.018;8.536;2022-08-04T08:24:30;5.43;;;2.83;;
11608;SDS011;5860;52.018;8.536;2022-08-04T08:27:00;6.65;;;3.10;;
11608;SDS011;5860;52.018;8.536;2022-08-04T08:29:29;7.85;;;2.88;;
11608;SDS011;5860;52.018;8.536;2022-08-04T08:31:59;6.43;;;3.03;;
11608;SDS011;5860;52.018;8.536;2022-08-04T08:34:33;5.35;;;2.92;;
11608;SDS011;5860;52.018;8.536;2022-08-04T08:45:04;4.03;;;2.42;;
11608;SDS011;5860;52.018;8.536;2022-08-04T08:59:28;6.43;;;2.75;;
11608;SDS011;5860;52.018;8.536;2022-08-04T09:08:49;5.47;;;2.40;;
11608;SDS011;5860;52.018;8.536;2022-08-04T09:11:19;3.72;;;2.47;;
11608;SDS011;5860;52.018;8.536;2022-08-04T09:14:07;3.78;;;2.58;;
11608;SDS011;5860;52.018;8.536;2022-08-04T09:16:44;3.08;;;2.63;;
11608;SDS011;5860;52.018;8.536;2022-08-04T09:19:19;7.93;;;2.75;;
11608;SDS011;5860;52.018;8.536;2022-08-04T09:22:12;2.80;;;2.60;;
11608;SDS011;5860;52.018;8.536;2022-08-04T09:25:02;2.65;;;2.30;;
11608;SDS011;5860;52.018;8.536;2022-08-04T09:27:42;2.58;;;2.33;;
11608;SDS011;5860;52.018;8.536;2022-08-04T09:30:15;3.17;;;2.60;;
11608;SDS011;5860;52.018;8.536;2022-08-04T09:32:56;5.38;;;2.78;;
11608;SDS011;5860;52.018;8.536;2022-08-04T09:38:43;2.38;;;2.17;;
11608;SDS011;5860;52.018;8.536;2022-08-04T09:47:37;2.90;;;2.70;;
11608;SDS011;5860;52.018;8.536;2022-08-04T09:50:31;4.45;;;2.85;;
11608;SDS011;5860;52.018;8.536;2022-08-04T09:53:17;4.63;;;2.80;;
11608;SDS011;5860;52.018;8.536;2022-08-04T09:56:02;3.63;;;2.85;;
11608;SDS011;5860;52.018;8.536;2022-08-04T09:59:19;6.03;;;2.65;;
11608;SDS011;5860;52.018;8.536;2022-08-04T10:01:28;3.25;;;2.83;;
11608;SDS011;5860;52.018;8.536;2022-08-04T10:04:00;3.03;;;2.70;;
11608;SDS011;5860;52.018;8.536;2022-08-04T10:09:07;4.82;;;3.00;;
11608;SDS011;5860;52.018;8.536;2022-08-04T10:20:03;5.50;;;2.95;;
11608;SDS011;5860;52.018;8.536;2022-08-04T10:22:40;6.07;;;3.60;;
11608;SDS011;5860;52.018;8.536;2022-08-04T10:28:34;7.32;;;2.50;;
11608;SDS011;5860;52.018;8.536;2022-08-04T10:31:09;5.57;;;2.90;;
11608;SDS011;5860;52.018;8.536;2022-08-04T10:33:52;7.63;;;2.65;;
11608;SDS011;5860;52.018;8.536;2022-08-04T10:36:27;3.38;;;2.67;;
11608;SDS011;5860;52.018;8.536;2022-08-04T10:39:04;3.10;;;2.22;;
11608;SDS011;5860;52.018;8.536;2022-08-04T10:41:54;4.07;;;2.35;;
11608;SDS011;5860;52.018;8.536;2022-08-04T10:47:23;5.07;;;2.60;;
11608;SDS011;5860;52.018;8.536;2022-08-04T10:49:58;2.97;;;2.30;;
11608;SDS011;5860;52.018;8.536;2022-08-04T10:52:32;4.22;;;2.30;;
11608;SDS011;5860;52.018;8.536;2022-08-04T10:55:05;3.00;;;2.25;;
11608;SDS011;5860;52.018;8.536;2022-08-04T10:57:39;4.55;;;2.65;;
11608;SDS011;5860;52.018;8.536;2022-08-04T11:00:12;3.85;;;2.55;;
11608;SDS011;5860;52.018;8.536;2022-08-04T11:08:16;3.17;;;2.10;;
11608;SDS011;5860;52.018;8.536;2022-08-04T11:14:21;3.33;;;2.22;;
11608;SDS011;5860;52.018;8.536;2022-08-04T11:17:00;2.50;;;2.30;;
11608;SDS011;5860;52.018;8.536;2022-08-04T11:19:41;4.47;;;2.28;;
11608;SDS011;5860;52.018;8.536;2022-08-04T11:23:05;6.65;;;2.10;;
11608;SDS011;5860;52.018;8.536;2022-08-04T11:31:34;3.33;;;1.90;;
11608;SDS011;5860;52.018;8.536;2022-08-04T11:44:47;2.38;;;2.17;;
11608;SDS011;5860;52.018;8.536;2022-08-04T11:47:32;3.10;;;2.03;;
11608;SDS011;5860;52.018;8.536;2022-08-04T11:52:40;4.03;;;2.13;;
11608;SDS011;5860;52.018;8.536;2022-08-04T11:55:11;3.40;;;2.13;;
11608;SDS011;5860;52.018;8.536;2022-08-04T11:57:40;2.22;;;2.00;;
11608;SDS011;5860;52.018;8.536;2022-08-04T12:00:11;3.33;;;2.50;;
11608;SDS011;5860;52.018;8.536;2022-08-04T12:05:40;3.58;;;1.98;;
11608;SDS011;5860;52.018;8.536;2022-08-04T12:17:02;5.05;;;1.77;;
11608;SDS011;5860;52.018;8.536;2022-08-04T12:22:31;1.92;;;1.55;;
11608;SDS011;5860;52.018;8.536;2022-08-04T12:27:54;4.40;;;1.70;;
11608;SDS011;5860;52.018;8.536;2022-08-04T12:30:26;2.25;;;1.60;;
11608;SDS011;5860;52.018;8.536;2022-08-04T12:33:22;4.55;;;1.40;;
11608;SDS011;5860;52.018;8.536;2022-08-04T12:36:21;3.60;;;1.70;;
11608;SDS011;5860;52.018;8.536;2022-08-04T12:39:06;2.85;;;1.42;;
11608;SDS011;5860;52.018;8.536;2022-08-04T12:41:43;1.70;;;1.40;;
11608;SDS011;5860;52.018;8.536;2022-08-04T12:44:22;3.30;;;1.60;;
11608;SDS011;5860;52.018;8.536;2022-08-04T12:47:03;3.38;;;1.45;;
11608;SDS011;5860;52.018;8.536;2022-08-04T12:49:55;4.68;;;1.48;;
11608;SDS011;5860;52.018;8.536;2022-08-04T12:52:32;2.05;;;1.30;;
11608;SDS011;5860;52.018;8.536;2022-08-04T12:55:27;3.95;;;1.70;;
11608;SDS011;5860;52.018;8.536;2022-08-04T12:57:57;6.47;;;1.63;;
11608;SDS011;5860;52.018;8.536;2022-08-04T13:00:33;2.03;;;1.70;;
11608;SDS011;5860;52.018;8.536;2022-08-04T13:03:10;2.92;;;1.98;;
11608;SDS011;5860;52.018;8.536;2022-08-04T13:05:40;4.78;;;1.30;;
11608;SDS011;5860;52.018;8.536;2022-08-04T13:08:09;4.80;;;1.48;;
11608;SDS011;5860;52.018;8.536;2022-08-04T13:10:45;3.30;;;1.42;;
11608;SDS011;5860;52.018;8.536;2022-08-04T13:13:16;2.75;;;1.30;;
11608;SDS011;5860;52.018;8.536;2022-08-04T13:15:58;2.53;;;1.42;;
11608;SDS011;5860;52.018;8.536;2022-08-04T13:18:29;1.33;;;1.23;;
11608;SDS011;5860;52.018;8.536;2022-08-04T13:21:08;1.83;;;1.20;;
11608;SDS011;5860;52.018;8.536;2022-08-04T13:23:47;3.65;;;1.48;;
11608;SDS011;5860;52.018;8.536;2022-08-04T13:26:47;4.55;;;1.45;;
11608;SDS011;5860;52.018;8.536;2022-08-04T13:29:42;4.15;;;1.70;;
11608;SDS011;5860;52.018;8.536;2022-08-04T13:32:28;3.03;;;1.60;;
11608;SDS011;5860;52.018;8.536;2022-08-04T13:34:56;5.07;;;1.83;;
11608;SDS011;5860;52.018;8.536;2022-08-04T13:37:33;3.97;;;1.92;;
11608;SDS011;5860;52.018;8.536;2022-08-04T13:40:04;2.30;;;1.70;;
11608;SDS011;5860;52.018;8.536;2022-08-04T13:42:33;2.72;;;1.95;;
11608;SDS011;5860;52.018;8.536;2022-08-04T13:45:02;2.88;;;1.85;;
11608;SDS011;5860;52.018;8.536;2022-08-04T13:47:32;3.95;;;2.10;;
11608;SDS011;5860;52.018;8.536;2022-08-04T13:50:06;4.10;;;2.40;;
11608;SDS011;5860;52.018;8.536;2022-08-04T13:52:50;2.85;;;2.03;;
11608;SDS011;5860;52.018;8.536;2022-08-04T13:55:23;2.20;;;2.00;;
11608;SDS011;5860;52.018;8.536;2022-08-04T13:58:03;3.30;;;2.13;;
11608;SDS011;5860;52.018;8.536;2022-08-04T14:00:37;3.53;;;2.08;;
11608;SDS011;5860;52.018;8.536;2022-08-04T14:03:30;5.47;;;2.40;;
11608;SDS011;5860;52.018;8.536;2022-08-04T14:06:22;2.63;;;2.40;;
11608;SDS011;5860;52.018;8.536;2022-08-04T14:09:02;4.22;;;2.40;;
11608;SDS011;5860;52.018;8.536;2022-08-04T14:11:41;3.60;;;1.90;;
11608;SDS011;5860;52.018;8.536;2022-08-04T14:14:31;2.45;;;1.95;;
11608;SDS011;5860;52.018;8.536;2022-08-04T14:19:53;3.60;;;1.95;;
11608;SDS011;5860;52.018;8.536;2022-08-04T14:25:08;4.80;;;2.13;;
11608;SDS011;5860;52.018;8.536;2022-08-04T14:35:56;5.60;;;2.30;;
11608;SDS011;5860;52.018;8.536;2022-08-04T14:41:20;7.63;;;2.22;;
11608;SDS011;5860;52.018;8.536;2022-08-04T14:46:23;11.60;;;2.80;;
11608;SDS011;5860;52.018;8.536;2022-08-04T14:49:03;3.58;;;2.47;;
11608;SDS011;5860;52.018;8.536;2022-08-04T14:51:40;5.72;;;2.92;;
11608;SDS011;5860;52.018;8.536;2022-08-04T14:54:09;7.03;;;2.72;;
11608;SDS011;5860;52.018;8.536;2022-08-04T14:56:50;10.52;;;3.00;;
11608;SDS011;5860;52.018;8.536;2022-08-04T14:59:18;9.98;;;3.22;;
11608;SDS011;5860;52.018;8.536;2022-08-04T15:01:46;9.88;;;3.30;;
11608;SDS011;5860;52.018;8.536;2022-08-04T15:04:26;4.90;;;2.42;;
11608;SDS011;5860;52.018;8.536;2022-08-04T15:06:55;7.28;;;3.58;;
11608;SDS011;5860;52.018;8.536;2022-08-04T15:09:22;7.15;;;3.70;;
11608;SDS011;5860;52.018;8.536;2022-08-04T15:11:50;5.97;;;3.58;;
11608;SDS011;5860;52.018;8.536;2022-08-04T15:14:17;7.43;;;4.05;;
11608;SDS011;5860;52.018;8.536;2022-08-04T15:17:03;12.63;;;4.72;;
11608;SDS011;5860;52.018;8.536;2022-08-04T15:19:37;8.85;;;4.40;;
11608;SDS011;5860;52.018;8.536;2022-08-04T15:22:05;9.63;;;4.40;;
11608;SDS011;5860;52.018;8.536;2022-08-04T15:24:42;12.13;;;5.28;;
11608;SDS011;5860;52.018;8.536;2022-08-04T15:27:17;7.32;;;3.67;;
11608;SDS011;5860;52.018;8.536;2022-08-04T15:29:45;9.88;;;4.00;;
11608;SDS011;5860;52.018;8.536;2022-08-04T15:32:30;11.18;;;3.80;;
11608;SDS011;5860;52.018;8.536;2022-08-04T15:35:07;11.23;;;3.90;;
11608;SDS011;5860;52.018;8.536;2022-08-04T15:40:12;10.80;;;3.92;;
11608;SDS011;5860;52.018;8.536;2022-08-04T15:43:02;10.40;;;3.78;;
11608;SDS011;5860;52.018;8.536;2022-08-04T15:45:58;7.30;;;3.95;;
11608;SDS011;5860;52.018;8.536;2022-08-04T15:48:50;9.13;;;3.80;;
11608;SDS011;5860;52.018;8.536;2022-08-04T15:51:23;11.05;;;4.85;;
11608;SDS011;5860;52.018;8.536;2022-08-04T15:58:56;9.60;;;4.97;;
11608;SDS011;5860;52.018;8.536;2022-08-04T16:01:23;9.63;;;3.13;;
11608;SDS011;5860;52.018;8.536;2022-08-04T16:03:53;9.63;;;3.58;;
11608;SDS011;5860;52.018;8.536;2022-08-04T16:08:59;10.32;;;3.63;;
11608;SDS011;5860;52.018;8.536;2022-08-04T16:19:09;9.32;;;3.95;;
11608;SDS011;5860;52.018;8.536;2022-08-04T16:21:55;7.90;;;3.70;;
11608;SDS011;5860;52.018;8.536;2022-08-04T16:24:29;7.93;;;3.50;;
11608;SDS011;5860;52.018;8.536;2022-08-04T16:27:03;3.67;;;3.00;;
11608;SDS011;5860;52.018;8.536;2022-08-04T16:34:30;6.90;;;3.30;;
11608;SDS011;5860;52.018;8.536;2022-08-04T16:37:16;5.30;;;3.33;;
11608;SDS011;5860;52.018;8.536;2022-08-04T16:39:45;12.68;;;3.30;;
11608;SDS011;5860;52.018;8.536;2022-08-04T16:42:29;6.78;;;3.65;;
11608;SDS011;5860;52.018;8.536;2022-08-04T16:45:15;7.30;;;3.55;;
11608;SDS011;5860;52.018;8.536;2022-08-04T16:50:15;9.88;;;4.75;;
11608;SDS011;5860;52.018;8.536;2022-08-04T16:52:48;4.90;;;3.13;;
11608;SDS011;5860;52.018;8.536;2022-08-04T16:55:20;8.63;;;3.78;;
11608;SDS011;5860;52.018;8.536;2022-08-04T16:57:49;8.45;;;3.53;;
11608;SDS011;5860;52.018;8.536;2022-08-04T17:00:28;9.40;;;4.30;;
11608;SDS011;5860;52.018;8.536;2022-08-04T17:03:03;5.40;;;3.30;;
11608;SDS011;5860;52.018;8.536;2022-08-04T17:05:32;10.85;;;3.30;;
11608;SDS011;5860;52.018;8.536;2022-08-04T17:08:05;8.38;;;3.15;;
11608;SDS011;5860;52.018;8.536;2022-08-04T17:10:53;11.02;;;3.58;;
11608;SDS011;5860;52.018;8.536;2022-08-04T17:16:18;7.53;;;4.07;;
11608;SDS011;5860;52.018;8.536;2022-08-04T17:18:48;7.43;;;4.13;;
11608;SDS011;5860;52.018;8.536;2022-08-04T17:21:19;5.82;;;3.75;;
11608;SDS011;5860;52.018;8.536;2022-08-04T17:24:05;7.85;;;4.68;;
11608;SDS011;5860;52.018;8.536;2022-08-04T17:26:42;10.73;;;5.60;;
11608;SDS011;5860;52.018;8.536;2022-08-04T17:29:17;12.45;;;4.28;;
11608;SDS011;5860;52.018;8.536;2022-08-04T17:31:45;10.23;;;4.55;;
11608;SDS011;5860;52.018;8.536;2022-08-04T17:34:13;8.98;;;4.38;;
11608;SDS011;5860;52.018;8.536;2022-08-04T17:36:45;6.70;;;3.78;;
11608;SDS011;5860;52.018;8.536;2022-08-04T17:39:32;8.05;;;4.03;;
11608;SDS011;5860;52.018;8.536;2022-08-04T17:42:03;7.15;;;3.80;;
11608;SDS011;5860;52.018;8.536;2022-08-04T17:44:36;7.57;;;3.65;;
11608;SDS011;5860;52.018;8.536;2022-08-04T17:47:07;4.82;;;2.88;;
11608;SDS011;5860;52.018;8.536;2022-08-04T17:49:42;5.38;;;3.10;;
11608;SDS011;5860;52.018;8.536;2022-08-04T17:52:19;4.35;;;3.00;;
11608;SDS011;5860;52.018;8.536;2022-08-04T17:55:06;5.28;;;2.75;;
11608;SDS011;5860;52.018;8.536;2022-08-04T17:57:45;5.85;;;2.90;;
11608;SDS011;5860;52.018;8.536;2022-08-04T18:00:34;4.85;;;3.03;;
11608;SDS011;5860;52.018;8.536;2022-08-04T18:03:06;4.93;;;3.17;;
11608;SDS011;5860;52.018;8.536;2022-08-04T18:05:36;6.05;;;3.28;;
11608;SDS011;5860;52.018;8.536;2022-08-04T18:08:23;3.85;;;3.10;;
11608;SDS011;5860;52.018;8.536;2022-08-04T18:11:06;4.32;;;3.30;;
11608;SDS011;5860;52.018;8.536;2022-08-04T18:13:51;5.97;;;3.30;;
11608;SDS011;5860;52.018;8.536;2022-08-04T18:16:22;6.18;;;2.80;;
11608;SDS011;5860;52.018;8.536;2022-08-04T18:19:08;4.93;;;3.20;;
11608;SDS011;5860;52.018;8.536;2022-08-04T18:21:36;8.85;;;3.83;;
11608;SDS011;5860;52.018;8.536;2022-08-04T18:24:23;4.30;;;3.08;;
11608;SDS011;5860;52.018;8.536;2022-08-04T18:27:01;5.70;;;3.08;;
11608;SDS011;5860;52.018;8.536;2022-08-04T18:29:32;4.47;;;2.50;;
11608;SDS011;5860;52.018;8.536;2022-08-04T18:32:04;3.90;;;2.38;;
11608;SDS011;5860;52.018;8.536;2022-08-04T18:34:34;6.03;;;2.60;;
11608;SDS011;5860;52.018;8.536;2022-08-04T18:37:20;4.53;;;2.58;;
11608;SDS011;5860;52.018;8.536;2022-08-04T18:40:09;5.35;;;2.75;;
11608;SDS011;5860;52.018;8.536;2022-08-04T18:42:56;6.57;;;2.65;;
11608;SDS011;5860;52.018;8.536;2022-08-04T18:45:43;4.82;;;2.15;;
11608;SDS011;5860;52.018;8.536;2022-08-04T18:48:16;3.80;;;2.20;;
11608;SDS011;5860;52.018;8.536;2022-08-04T18:50:44;5.38;;;2.38;;
11608;SDS011;5860;52.018;8.536;2022-08-04T18:53:30;2.17;;;1.55;;
11608;SDS011;5860;52.018;8.536;2022-08-04T18:56:01;3.17;;;1.95;;
11608;SDS011;5860;52.018;8.536;2022-08-04T18:58:52;4.53;;;2.58;;
11608;SDS011;5860;52.018;8.536;2022-08-04T19:01:19;6.18;;;2.60;;
11608;SDS011;5860;52.018;8.536;2022-08-04T19:03:54;3.95;;;2.60;;
11608;SDS011;5860;52.018;8.536;2022-08-04T19:06:25;4.75;;;2.80;;
11608;SDS011;5860;52.018;8.536;2022-08-04T19:08:52;3.42;;;2.38;;
11608;SDS011;5860;52.018;8.536;2022-08-04T19:11:19;4.93;;;2.05;;
11608;SDS011;5860;52.018;8.536;2022-08-04T19:14:06;5.07;;;3.28;;
11608;SDS011;5860;52.018;8.536;2022-08-04T19:16:39;5.88;;;2.97;;
11608;SDS011;5860;52.018;8.536;2022-08-04T19:19:12;5.45;;;2.40;;
11608;SDS011;5860;52.018;8.536;2022-08-04T19:21:41;4.45;;;2.42;;
11608;SDS011;5860;52.018;8.536;2022-08-04T19:24:27;5.35;;;2.20;;
11608;SDS011;5860;52.018;8.536;2022-08-04T19:27:03;5.60;;;2.80;;
11608;SDS011;5860;52.018;8.536;2022-08-04T19:29:52;4.88;;;2.50;;
11608;SDS011;5860;52.018;8.536;2022-08-04T19:32:19;3.67;;;2.25;;
11608;SDS011;5860;52.018;8.536;2022-08-04T19:34:46;3.95;;;2.00;;
11608;SDS011;5860;52.018;8.536;2022-08-04T19:37:17;6.18;;;2.38;;
11608;SDS011;5860;52.018;8.536;2022-08-04T19:40:05;3.78;;;2.53;;
11608;SDS011;5860;52.018;8.536;2022-08-04T19:42:35;5.68;;;2.80;;
11608;SDS011;5860;52.018;8.536;2022-08-04T19:45:02;5.55;;;2.58;;
11608;SDS011;5860;52.018;8.536;2022-08-04T19:47:30;6.45;;;3.00;;
11608;SDS011;5860;52.018;8.536;2022-08-04T19:50:17;8.85;;;4.50;;
11608;SDS011;5860;52.018;8.536;2022-08-04T19:52:44;7.30;;;5.15;;
11608;SDS011;5860;52.018;8.536;2022-08-04T19:55:31;14.93;;;5.50;;
11608;SDS011;5860;52.018;8.536;2022-08-04T19:58:04;7.55;;;4.10;;
11608;SDS011;5860;52.018;8.536;2022-08-04T20:00:34;6.28;;;3.85;;
11608;SDS011;5860;52.018;8.536;2022-08-04T20:03:04;7.13;;;2.97;;
11608;SDS011;5860;52.018;8.536;2022-08-04T20:05:37;3.22;;;2.90;;
11608;SDS011;5860;52.018;8.536;2022-08-04T20:08:20;8.75;;;2.95;;
11608;SDS011;5860;52.018;8.536;2022-08-04T20:10:49;5.10;;;3.08;;
11608;SDS011;5860;52.018;8.536;2022-08-04T20:13:36;5.53;;;3.53;;
11608;SDS011;5860;52.018;8.536;2022-08-04T20:16:04;4.53;;;2.95;;
11608;SDS011;5860;52.018;8.536;2022-08-04T20:18:51;7.72;;;2.85;;
11608;SDS011;5860;52.018;8.536;2022-08-04T20:21:24;6.70;;;2.70;;
11608;SDS011;5860;52.018;8.536;2022-08-04T20:24:11;5.28;;;3.00;;
11608;SDS011;5860;52.018;8.536;2022-08-04T20:26:58;7.32;;;3.08;;
11608;SDS011;5860;52.018;8.536;2022-08-04T20:29:30;4.45;;;3.30;;
11608;SDS011;5860;52.018;8.536;2022-08-04T20:32:06;4.43;;;2.53;;
11608;SDS011;5860;52.018;8.536;2022-08-04T20:34:35;5.10;;;2.88;;
11608;SDS011;5860;52.018;8.536;2022-08-04T20:37:02;5.60;;;2.92;;
11608;SDS011;5860;52.018;8.536;2022-08-04T20:39:29;6.93;;;3.28;;
11608;SDS011;5860;52.018;8.536;2022-08-04T20:41:56;6.68;;;3.50;;
11608;SDS011;5860;52.018;8.536;2022-08-04T20:44:24;4.43;;;3.15;;
11608;SDS011;5860;52.018;8.536;2022-08-04T20:46:51;6.05;;;3.47;;